Time;durP1;ratioP1;P1;durP2;ratioP2;P2;SDS_P1;SDS_P2;PMS_P1;PMS_P2;Temp;Humidity;BMP_temperature;BMP_pressure;BME280_temperature;BME280_humidity;BME280_pressure;Samples;Min_cycle;Max_cycle;Signal;HPM_P1;HPM_P2
2022/01/02 00:01:57;;;;;;;;;;;12.40;99.10;;;;;;5115767;28;20338;-79
2022/01/02 00:04:23;;;;;;;;;;;12.40;99.20;;;;;;5113518;28;19915;-79
2022/01/02 00:06:50;;;;;;;;;;;12.40;99.10;;;;;;5114674;28;20022;-79
2022/01/02 00:09:20;;;;;;;;;;;12.40;99.10;;;;;;5115276;28;19935;-80
2022/01/02 00:11:47;;;;;;;;;;;12.40;99.20;;;;;;5114509;28;19946;-80
2022/01/02 00:14:17;;;;;;;;;;;12.40;99.30;;;;;;5113459;28;19918;-79
2022/01/02 00:16:42;;;;;;;;;;;12.40;99.30;;;;;;5114606;28;19912;-79
2022/01/02 00:19:19;;;;;;;;;;;12.50;99.10;;;;;;5114685;28;19924;-82
2022/01/02 00:21:47;;;;;;;;;;;12.40;99.10;;;;;;5115629;28;20364;-79
2022/01/02 00:24:17;;;;;;;;;;;12.50;99.20;;;;;;5114447;28;19908;-79
2022/01/02 00:26:45;;;;;;;;;;;12.50;99.20;;;;;;5114874;28;19919;-79
2022/01/02 00:29:11;;;;;;;;;;;12.50;99.10;;;;;;5097733;28;19912;-81
2022/01/02 00:31:41;;;;;;;;;;;12.50;99.00;;;;;;5115542;28;19911;-79
2022/01/02 00:34:07;;;;;;;;;;;12.50;99.00;;;;;;5114629;28;19922;-79
2022/01/02 00:36:34;;;;;;;;;;;12.50;99.00;;;;;;5114117;28;19934;-79
2022/01/02 00:39:00;;;;;;;;;;;12.50;99.00;;;;;;5094102;28;19924;-79
2022/01/02 00:41:36;;;;;;;;;;;12.60;99.00;;;;;;5095381;28;19957;-79
2022/01/02 00:44:22;;;;;;;;;;;12.50;98.90;;;;;;5109595;28;20028;-79
2022/01/02 00:46:52;;;;;;;;;;;12.60;98.90;;;;;;5113783;28;20060;-79
2022/01/02 00:49:24;;;;;;;;;;;12.60;98.90;;;;;;5113420;28;20385;-80
2022/01/02 00:51:52;;;;;;;;;;;12.60;99.00;;;;;;5114768;28;20271;-79
2022/01/02 00:54:22;;;;;;;;;;;12.60;99.10;;;;;;5114248;28;19919;-79
2022/01/02 00:56:51;;;;;;;;;;;12.60;99.10;;;;;;5115775;28;19961;-80
2022/01/02 00:59:27;;;;;;;;;;;12.60;99.10;;;;;;5113648;28;19911;-80
2022/01/02 01:02:03;;;;;;;;;;;12.60;99.20;;;;;;5114337;28;19919;-79
2022/01/02 01:04:30;;;;;;;;;;;12.60;99.20;;;;;;5112657;28;19920;-80
2022/01/02 01:06:58;;;;;;;;;;;12.60;99.30;;;;;;5114489;28;19919;-79
2022/01/02 01:09:26;;;;;;;;;;;12.60;99.30;;;;;;5114795;28;19915;-80
2022/01/02 01:11:53;;;;;;;;;;;12.60;99.40;;;;;;5114017;28;19908;-80
2022/01/02 01:14:18;;;;;;;;;;;12.60;99.40;;;;;;5112764;28;19912;-79
2022/01/02 01:16:44;;;;;;;;;;;12.60;99.40;;;;;;5114217;28;19930;-79
2022/01/02 01:19:10;;;;;;;;;;;12.70;99.50;;;;;;5113387;28;20006;-79
2022/01/02 01:21:36;;;;;;;;;;;12.70;99.50;;;;;;5114270;28;20478;-80
2022/01/02 01:24:02;;;;;;;;;;;12.70;99.50;;;;;;5096665;28;19965;-80
2022/01/02 01:26:27;;;;;;;;;;;12.70;99.60;;;;;;5095407;28;20313;-81
2022/01/02 01:28:53;;;;;;;;;;;12.60;99.60;;;;;;5113718;28;19916;-81
2022/01/02 01:31:19;;;;;;;;;;;12.60;99.70;;;;;;5113478;28;19934;-80
2022/01/02 01:33:44;;;;;;;;;;;12.60;99.80;;;;;;5115087;28;20376;-80
2022/01/02 01:36:10;;;;;;;;;;;12.60;99.80;;;;;;5096800;28;19916;-80
2022/01/02 01:38:35;;;;;;;;;;;12.60;99.90;;;;;;5114525;28;20347;-80
2022/01/02 01:41:05;;;;;;;;;;;12.60;99.90;;;;;;5115086;28;19945;-80
2022/01/02 01:43:38;;;;;;;;;;;12.60;99.90;;;;;;5114430;28;19915;-80
2022/01/02 01:46:05;;;;;;;;;;;12.60;99.90;;;;;;5113617;28;19962;-81
2022/01/02 01:48:30;;;;;;;;;;;12.60;99.90;;;;;;5113247;28;19912;-80
2022/01/02 01:50:56;;;;;;;;;;;12.70;99.90;;;;;;5114195;28;20010;-81
2022/01/02 01:53:23;;;;;;;;;;;12.60;99.90;;;;;;5096379;28;19912;-81
2022/01/02 01:55:48;;;;;;;;;;;12.60;99.90;;;;;;5096655;28;19923;-77
2022/01/02 01:58:15;;;;;;;;;;;12.60;99.90;;;;;;5093545;28;19923;-78
2022/01/02 02:00:40;;;;;;;;;;;12.60;99.90;;;;;;5113986;28;20470;-80
2022/01/02 02:03:06;;;;;;;;;;;12.60;99.90;;;;;;5113052;28;19930;-79
2022/01/02 02:05:32;;;;;;;;;;;12.60;99.90;;;;;;5112072;28;20271;-78
2022/01/02 02:07:57;;;;;;;;;;;12.50;99.90;;;;;;5112997;28;19960;-78
2022/01/02 02:12:50;;;;;;;;;;;12.60;99.90;;;;;;5114195;28;20009;-80
2022/01/02 02:15:16;;;;;;;;;;;12.50;99.90;;;;;;5095581;28;19912;-78
2022/01/02 02:17:48;;;;;;;;;;;12.50;99.90;;;;;;5112340;28;19915;-79
2022/01/02 02:20:21;;;;;;;;;;;12.50;99.90;;;;;;5112536;28;20383;-78
2022/01/02 02:22:48;;;;;;;;;;;12.40;99.90;;;;;;5112315;28;20355;-77
2022/01/02 02:25:18;;;;;;;;;;;12.50;99.90;;;;;;5112058;28;19912;-78
2022/01/02 02:28:01;;;;;;;;;;;12.50;99.90;;;;;;5113215;28;19903;-77
2022/01/02 02:30:28;;;;;;;;;;;12.40;99.90;;;;;;5111866;28;19965;-79
2022/01/02 02:32:54;;;;;;;;;;;12.40;99.90;;;;;;5112800;28;20372;-78
2022/01/02 02:35:19;;;;;;;;;;;12.30;99.90;;;;;;5095218;28;19916;-76
2022/01/02 02:37:45;;;;;;;;;;;12.30;99.90;;;;;;5080359;28;19915;-78
2022/01/02 02:40:12;;;;;;;;;;;12.20;99.90;;;;;;5093681;28;20360;-76
2022/01/02 02:42:52;;;;;;;;;;;12.20;99.90;;;;;;5091721;28;20370;-80
2022/01/02 02:51:03;;;;;;;;;;;12.00;99.90;;;;;;5113461;28;20391;-77
2022/01/02 02:53:29;;;;;;;;;;;12.00;99.90;;;;;;5111485;28;19916;-80
2022/01/02 02:55:57;;;;;;;;;;;11.90;99.90;;;;;;5111791;28;20256;-77
2022/01/02 03:00:58;;;;;;;;;;;11.80;99.90;;;;;;5114120;28;19908;-77
2022/01/02 03:03:23;;;;;;;;;;;11.80;99.90;;;;;;5112130;28;20434;-78
2022/01/02 03:05:49;;;;;;;;;;;11.80;99.90;;;;;;5094432;28;19916;-78
2022/01/02 03:08:15;;;;;;;;;;;11.80;99.90;;;;;;5111656;28;19953;-78
2022/01/02 03:10:41;;;;;;;;;;;11.80;99.90;;;;;;5111175;28;19916;-79
2022/01/02 03:13:06;;;;;;;;;;;11.80;99.90;;;;;;5095166;28;19981;-79
2022/01/02 03:15:32;;;;;;;;;;;11.90;99.90;;;;;;5111649;28;19907;-80
2022/01/02 03:17:57;;;;;;;;;;;11.80;99.90;;;;;;5111648;28;19939;-79
2022/01/02 03:20:25;;;;;;;;;;;11.80;99.90;;;;;;5094598;28;20129;-80
2022/01/02 03:22:50;;;;;;;;;;;11.80;99.90;;;;;;5094063;28;19947;-78
2022/01/02 03:25:17;;;;;;;;;;;11.80;99.90;;;;;;5094961;28;19912;-79
2022/01/02 03:27:43;;;;;;;;;;;11.80;99.90;;;;;;5112524;28;19914;-78
2022/01/02 03:30:10;;;;;;;;;;;11.80;99.90;;;;;;5111819;28;19966;-78
2022/01/02 03:32:35;;;;;;;;;;;11.90;99.90;;;;;;5111489;28;19919;-78
2022/01/02 03:35:01;;;;;;;;;;;11.90;99.90;;;;;;5112003;28;20236;-77
2022/01/02 03:37:28;;;;;;;;;;;11.90;99.90;;;;;;5111834;28;20018;-77
2022/01/02 03:39:54;;;;;;;;;;;12.00;99.90;;;;;;5112415;28;19926;-78
2022/01/02 03:42:20;;;;;;;;;;;12.00;99.90;;;;;;5112058;28;20011;-77
2022/01/02 03:44:45;;;;;;;;;;;12.00;99.90;;;;;;5112364;28;20002;-77
2022/01/02 03:47:11;;;;;;;;;;;12.10;99.90;;;;;;5111072;28;19915;-78
2022/01/02 03:49:37;;;;;;;;;;;12.10;99.90;;;;;;5112027;28;19915;-77
2022/01/02 03:52:03;;;;;;;;;;;12.10;99.90;;;;;;5095963;28;19916;-78
2022/01/02 03:54:29;;;;;;;;;;;12.10;99.90;;;;;;5113372;28;20367;-78
2022/01/02 03:56:54;;;;;;;;;;;12.10;99.90;;;;;;5094075;28;19908;-78
2022/01/02 03:59:20;;;;;;;;;;;12.10;99.90;;;;;;5094394;28;20347;-77
2022/01/02 04:01:45;;;;;;;;;;;12.20;99.90;;;;;;5110858;28;19907;-77
2022/01/02 04:04:11;;;;;;;;;;;12.20;99.90;;;;;;5111409;28;20294;-76
2022/01/02 04:06:36;;;;;;;;;;;12.20;99.90;;;;;;5111045;28;19911;-80
2022/01/02 04:09:02;;;;;;;;;;;12.10;99.90;;;;;;5111813;28;19911;-76
2022/01/02 04:11:28;;;;;;;;;;;12.10;99.90;;;;;;5111258;28;19920;-76
2022/01/02 04:13:53;;;;;;;;;;;12.20;99.90;;;;;;5112464;28;19912;-76
2022/01/02 04:16:19;;;;;;;;;;;12.10;99.90;;;;;;5112786;28;20010;-75
2022/01/02 04:18:44;;;;;;;;;;;12.20;99.90;;;;;;5091002;28;19920;-76
2022/01/02 04:21:10;;;;;;;;;;;12.10;99.90;;;;;;5117986;27;20367;-77
2022/01/02 04:23:37;;;;;;;;;;;12.10;99.90;;;;;;5136787;27;19915;-77
2022/01/02 04:26:04;;;;;;;;;;;12.10;99.90;;;;;;5137037;27;19952;-76
2022/01/02 04:28:30;;;;;;;;;;;12.10;99.90;;;;;;5117540;27;19912;-77
2022/01/02 04:30:56;;;;;;;;;;;12.10;99.90;;;;;;5136147;27;20045;-76
2022/01/02 04:33:21;;;;;;;;;;;12.10;99.90;;;;;;5118325;27;19914;-76
2022/01/02 04:35:47;;;;;;;;;;;12.10;99.90;;;;;;5118005;27;19911;-76
2022/01/02 04:38:14;;;;;;;;;;;12.10;99.90;;;;;;5100985;27;19915;-76
2022/01/02 04:40:39;;;;;;;;;;;12.10;99.90;;;;;;5135867;27;19919;-82
2022/01/02 04:43:05;;;;;;;;;;;12.10;99.90;;;;;;5135835;27;20282;-77
2022/01/02 04:45:31;;;;;;;;;;;12.10;99.90;;;;;;5136705;27;19970;-77
2022/01/02 04:47:56;;;;;;;;;;;12.10;99.90;;;;;;5117471;27;19911;-77
2022/01/02 04:50:22;;;;;;;;;;;12.10;99.90;;;;;;5136236;27;20279;-76
2022/01/02 04:52:47;;;;;;;;;;;12.10;99.90;;;;;;5117571;27;19933;-76
2022/01/02 04:55:13;;;;;;;;;;;12.10;99.90;;;;;;5136754;27;19911;-76
2022/01/02 04:57:38;;;;;;;;;;;12.10;99.90;;;;;;5117814;27;19919;-76
2022/01/02 05:00:05;;;;;;;;;;;12.10;99.90;;;;;;5135306;27;20014;-76
2022/01/02 05:02:31;;;;;;;;;;;12.20;99.90;;;;;;5136584;27;19999;-76
2022/01/02 05:04:56;;;;;;;;;;;12.20;99.90;;;;;;5100388;27;20010;-75
2022/01/02 05:07:22;;;;;;;;;;;12.20;99.90;;;;;;5117804;27;20349;-75
2022/01/02 05:09:47;;;;;;;;;;;12.10;99.90;;;;;;5116709;27;19967;-76
2022/01/02 05:12:13;;;;;;;;;;;12.10;99.90;;;;;;5117954;27;20010;-74
2022/01/02 05:14:38;;;;;;;;;;;12.10;99.90;;;;;;5136328;27;19958;-76
2022/01/02 05:17:04;;;;;;;;;;;12.10;99.90;;;;;;5117169;27;19919;-75
2022/01/02 05:19:30;;;;;;;;;;;12.20;99.90;;;;;;5114184;28;19993;-76
2022/01/02 05:21:55;;;;;;;;;;;12.10;99.90;;;;;;5110836;28;19912;-76
2022/01/02 05:24:21;;;;;;;;;;;12.20;99.90;;;;;;5079508;28;19912;-75
2022/01/02 05:26:46;;;;;;;;;;;12.20;99.90;;;;;;5096287;28;19961;-75
2022/01/02 05:29:12;;;;;;;;;;;12.20;99.90;;;;;;5115662;28;19916;-75
2022/01/02 05:31:37;;;;;;;;;;;12.20;99.90;;;;;;5115891;28;19922;-75
2022/01/02 05:34:03;;;;;;;;;;;12.20;99.90;;;;;;5115715;28;19912;-76
2022/01/02 05:36:28;;;;;;;;;;;12.20;99.90;;;;;;5097924;28;19958;-76
2022/01/02 05:38:54;;;;;;;;;;;12.20;99.90;;;;;;5113553;28;19916;-75
2022/01/02 05:41:20;;;;;;;;;;;12.20;99.90;;;;;;5115166;28;19916;-76
2022/01/02 05:43:46;;;;;;;;;;;12.10;99.90;;;;;;5112680;28;19912;-82
2022/01/02 05:46:13;;;;;;;;;;;12.10;99.90;;;;;;5114056;28;19965;-75
2022/01/02 05:48:38;;;;;;;;;;;12.10;99.90;;;;;;5093170;28;19912;-75
2022/01/02 05:51:04;;;;;;;;;;;12.10;99.90;;;;;;5093937;28;19923;-75
2022/01/02 05:53:30;;;;;;;;;;;12.00;99.90;;;;;;5109726;28;19998;-75
2022/01/02 05:55:56;;;;;;;;;;;12.00;99.90;;;;;;5113405;28;19959;-76
2022/01/02 05:58:23;;;;;;;;;;;12.10;99.90;;;;;;5114750;28;19974;-74
2022/01/02 06:00:49;;;;;;;;;;;12.10;99.90;;;;;;5114341;28;19950;-76
2022/01/02 06:03:14;;;;;;;;;;;12.10;99.90;;;;;;5088676;28;19916;-76
2022/01/02 06:05:40;;;;;;;;;;;12.10;99.90;;;;;;5093555;28;20387;-75
2022/01/02 06:08:05;;;;;;;;;;;12.10;99.90;;;;;;5106818;28;19926;-76
2022/01/02 06:10:31;;;;;;;;;;;12.10;99.90;;;;;;5114594;28;19908;-75
2022/01/02 06:12:56;;;;;;;;;;;12.10;99.90;;;;;;5112092;28;19916;-75
2022/01/02 06:15:22;;;;;;;;;;;12.10;99.90;;;;;;5113257;28;19999;-75
2022/01/02 06:17:47;;;;;;;;;;;12.10;99.90;;;;;;5113770;28;19955;-81
2022/01/02 06:20:13;;;;;;;;;;;12.10;99.90;;;;;;5095695;28;19963;-77
2022/01/02 06:22:38;;;;;;;;;;;12.10;99.90;;;;;;5112841;28;20376;-76
2022/01/02 06:25:04;;;;;;;;;;;12.10;99.90;;;;;;5113172;28;19924;-77
2022/01/02 06:27:30;;;;;;;;;;;12.10;99.90;;;;;;5114160;27;19938;-76
2022/01/02 06:29:55;;;;;;;;;;;12.10;99.90;;;;;;5113617;28;20232;-78
2022/01/02 06:32:21;;;;;;;;;;;12.10;99.90;;;;;;5116135;28;19934;-76
2022/01/02 06:34:46;;;;;;;;;;;12.10;99.90;;;;;;5114813;28;20321;-76
2022/01/02 06:37:12;;;;;;;;;;;12.00;99.90;;;;;;5113676;28;20415;-76
2022/01/02 06:39:38;;;;;;;;;;;12.00;99.90;;;;;;5114079;28;19995;-77
2022/01/02 06:42:03;;;;;;;;;;;12.00;99.90;;;;;;5113347;28;19939;-77
2022/01/02 06:44:29;;;;;;;;;;;12.00;99.90;;;;;;5114341;28;19915;-76
2022/01/02 06:46:54;;;;;;;;;;;11.90;99.90;;;;;;5111653;28;19961;-76
2022/01/02 06:49:20;;;;;;;;;;;12.00;99.90;;;;;;5112997;28;19930;-76
2022/01/02 06:51:46;;;;;;;;;;;12.00;99.90;;;;;;5112822;28;19942;-76
2022/01/02 06:54:11;;;;;;;;;;;11.90;99.90;;;;;;5113769;28;19976;-76
2022/01/02 06:56:37;;;;;;;;;;;12.00;99.90;;;;;;5094733;28;20371;-76
2022/01/02 06:59:02;;;;;;;;;;;12.00;99.90;;;;;;5104694;28;19920;-77
2022/01/02 07:01:28;;;;;;;;;;;12.00;99.90;;;;;;5103235;28;19912;-78
2022/01/02 07:03:53;;;;;;;;;;;12.00;99.90;;;;;;5107850;28;19965;-81
2022/01/02 07:06:19;;;;;;;;;;;12.10;99.90;;;;;;5112767;28;20275;-77
2022/01/02 07:08:44;;;;;;;;;;;12.10;99.90;;;;;;5109891;28;19911;-77
2022/01/02 07:11:11;;;;;;;;;;;12.10;99.90;;;;;;5110036;28;19916;-78
2022/01/02 07:13:38;;;;;;;;;;;12.20;99.90;;;;;;5112706;28;20014;-78
2022/01/02 07:16:04;;;;;;;;;;;12.20;99.90;;;;;;5111915;28;19912;-78
2022/01/02 07:18:29;;;;;;;;;;;12.20;99.90;;;;;;5112293;28;20388;-78
2022/01/02 07:20:55;;;;;;;;;;;12.20;99.90;;;;;;5130971;27;19930;-83
2022/01/02 07:23:20;;;;;;;;;;;12.30;99.90;;;;;;5114702;28;19916;-78
2022/01/02 07:25:46;;;;;;;;;;;12.30;99.90;;;;;;5094306;28;19938;-78
2022/01/02 07:28:11;;;;;;;;;;;12.20;99.90;;;;;;5124211;28;20279;-78
2022/01/02 07:30:36;;;;;;;;;;;12.20;99.90;;;;;;5094177;28;20394;-78
2022/01/02 07:33:02;;;;;;;;;;;12.30;99.90;;;;;;5132176;28;19914;-78
2022/01/02 07:35:28;;;;;;;;;;;12.30;99.90;;;;;;5133661;28;19926;-78
2022/01/02 07:37:54;;;;;;;;;;;12.30;99.70;;;;;;5130997;28;20287;-84
2022/01/02 07:40:19;;;;;;;;;;;12.30;99.80;;;;;;5113613;28;19915;-78
2022/01/02 07:42:45;;;;;;;;;;;12.30;99.80;;;;;;5115015;28;19922;-78
2022/01/02 07:45:12;;;;;;;;;;;12.30;99.60;;;;;;5133262;28;19908;-79
2022/01/02 07:47:37;;;;;;;;;;;12.30;99.50;;;;;;5114804;28;20014;-79
2022/01/02 07:50:03;;;;;;;;;;;12.40;99.40;;;;;;5130719;28;20006;-78
2022/01/02 07:52:29;;;;;;;;;;;12.40;99.10;;;;;;5091129;28;19920;-79
2022/01/02 07:54:54;;;;;;;;;;;12.50;99.00;;;;;;5115005;27;19911;-78
2022/01/02 07:57:20;;;;;;;;;;;12.40;99.20;;;;;;5116347;27;19922;-81
2022/01/02 07:59:45;;;;;;;;;;;12.40;99.00;;;;;;5112410;27;19924;-80
2022/01/02 08:02:11;;;;;;;;;;;12.50;98.80;;;;;;5101469;27;19915;-79
2022/01/02 08:04:36;;;;;;;;;;;12.50;98.90;;;;;;5109728;27;20368;-79
2022/01/02 08:07:02;;;;;;;;;;;12.50;99.00;;;;;;5126091;27;19920;-78
2022/01/02 08:09:27;;;;;;;;;;;12.50;98.80;;;;;;5107246;27;20009;-80
2022/01/02 08:11:53;;;;;;;;;;;12.50;99.10;;;;;;5096259;27;19973;-80
2022/01/02 08:14:19;;;;;;;;;;;12.50;99.00;;;;;;5134375;27;19937;-78
2022/01/02 08:16:45;;;;;;;;;;;12.40;99.40;;;;;;5129198;27;19911;-78
2022/01/02 08:19:10;;;;;;;;;;;12.50;99.50;;;;;;5127312;27;20022;-78
2022/01/02 08:21:36;;;;;;;;;;;12.50;99.00;;;;;;5100711;27;20014;-79
2022/01/02 08:24:02;;;;;;;;;;;12.50;98.60;;;;;;5115584;28;20431;-85
2022/01/02 08:26:27;;;;;;;;;;;12.60;98.40;;;;;;5118257;28;20264;-79
2022/01/02 08:28:53;;;;;;;;;;;12.70;97.40;;;;;;5110138;27;19915;-79
2022/01/02 08:31:18;;;;;;;;;;;12.90;96.50;;;;;;5117990;27;19916;-78
2022/01/02 08:33:44;;;;;;;;;;;13.00;96.40;;;;;;5134214;27;19965;-83
2022/01/02 08:36:09;;;;;;;;;;;13.10;96.40;;;;;;5099625;28;20469;-79
2022/01/02 08:38:35;;;;;;;;;;;13.10;96.30;;;;;;5091948;28;19920;-78
2022/01/02 08:41:01;;;;;;;;;;;13.20;96.60;;;;;;5135252;27;19984;-77
2022/01/02 08:43:26;;;;;;;;;;;13.10;96.90;;;;;;5131812;27;19911;-76
2022/01/02 08:45:52;;;;;;;;;;;13.10;97.50;;;;;;5117888;27;20366;-76
2022/01/02 08:48:17;;;;;;;;;;;13.00;97.60;;;;;;5100021;27;20351;-77
2022/01/02 08:50:43;;;;;;;;;;;12.90;97.80;;;;;;5115661;27;20338;-77
2022/01/02 08:53:08;;;;;;;;;;;12.90;97.60;;;;;;5099770;27;20331;-77
2022/01/02 08:55:35;;;;;;;;;;;12.90;97.60;;;;;;5107359;28;19922;-77
2022/01/02 08:58:01;;;;;;;;;;;12.90;97.70;;;;;;5121942;27;20293;-76
2022/01/02 09:00:26;;;;;;;;;;;12.90;97.50;;;;;;5112267;27;19915;-77
2022/01/02 09:02:52;;;;;;;;;;;12.90;97.50;;;;;;5135606;27;19919;-77
2022/01/02 09:05:18;;;;;;;;;;;12.90;97.50;;;;;;5126222;27;20006;-77
2022/01/02 09:07:44;;;;;;;;;;;13.00;97.50;;;;;;5125345;27;19996;-80
2022/01/02 09:10:10;;;;;;;;;;;13.10;97.30;;;;;;5114309;27;19919;-77
2022/01/02 09:12:35;;;;;;;;;;;13.10;97.20;;;;;;5116275;27;20316;-76
2022/01/02 09:15:01;;;;;;;;;;;13.20;96.90;;;;;;5098314;27;19922;-77
2022/01/02 09:17:27;;;;;;;;;;;13.10;97.10;;;;;;5134001;27;19907;-79
2022/01/02 09:19:52;;;;;;;;;;;13.10;97.10;;;;;;5132622;27;19927;-76
2022/01/02 09:22:18;;;;;;;;;;;13.10;96.80;;;;;;5114161;27;19922;-76
2022/01/02 09:24:44;;;;;;;;;;;13.20;96.40;;;;;;5131987;27;20036;-76
2022/01/02 09:27:10;;;;;;;;;;;13.30;96.50;;;;;;5130017;27;19911;-78
2022/01/02 09:29:35;;;;;;;;;;;13.30;96.80;;;;;;5090147;27;19968;-77
2022/01/02 09:32:02;;;;;;;;;;;13.40;96.40;;;;;;5117513;27;20323;-77
2022/01/02 09:34:28;;;;;;;;;;;13.40;96.30;;;;;;5112579;28;19922;-76
2022/01/02 09:36:54;;;;;;;;;;;13.40;96.30;;;;;;5088657;27;19915;-77
2022/01/02 09:39:19;;;;;;;;;;;13.30;96.40;;;;;;5115635;27;19916;-80
2022/01/02 09:41:45;;;;;;;;;;;13.30;96.40;;;;;;5115700;27;19922;-76
2022/01/02 09:44:10;;;;;;;;;;;13.40;96.20;;;;;;5114874;27;19912;-80
2022/01/02 09:46:38;;;;;;;;;;;13.30;96.30;;;;;;5085717;27;20010;-83
2022/01/02 09:49:04;;;;;;;;;;;13.40;96.30;;;;;;5126966;27;19912;-79
2022/01/02 09:51:29;;;;;;;;;;;13.40;96.10;;;;;;5114728;27;19962;-79
2022/01/02 09:53:55;;;;;;;;;;;13.40;96.00;;;;;;5117401;27;19983;-78
2022/01/02 09:56:21;;;;;;;;;;;13.50;96.10;;;;;;5111269;27;19937;-78
2022/01/02 09:58:47;;;;;;;;;;;13.60;95.70;;;;;;5109215;27;19945;-78
2022/01/02 10:01:23;;;;;;;;;;;13.60;95.50;;;;;;5108982;27;19919;-82
2022/01/02 10:03:54;;;;;;;;;;;13.60;95.90;;;;;;5114965;28;20408;-79
2022/01/02 10:06:21;;;;;;;;;;;13.60;95.90;;;;;;5112356;27;19960;-79
2022/01/02 10:08:47;;;;;;;;;;;14.00;96.40;;;;;;5110584;27;20010;-79
2022/01/02 10:11:22;;;;;;;;;;;14.60;95.20;;;;;;5113854;27;19912;-81
2022/01/02 10:13:49;;;;;;;;;;;15.20;93.30;;;;;;5114744;27;19908;-79
2022/01/02 10:16:18;;;;;;;;;;;15.60;92.20;;;;;;5115862;27;19921;-85
2022/01/02 10:18:43;;;;;;;;;;;16.10;91.70;;;;;;5113940;28;19912;-80
2022/01/02 10:21:10;;;;;;;;;;;16.40;90.00;;;;;;5099793;27;19927;-80
2022/01/02 10:23:36;;;;;;;;;;;16.40;88.80;;;;;;5120971;27;20234;-80
2022/01/02 10:26:03;;;;;;;;;;;16.60;87.50;;;;;;5109967;27;19926;-80
2022/01/02 10:28:31;;;;;;;;;;;16.80;86.30;;;;;;5111654;28;19994;-80
2022/01/02 10:31:07;;;;;;;;;;;17.00;84.50;;;;;;5114038;27;19911;-78
2022/01/02 10:33:45;;;;;;;;;;;16.80;82.80;;;;;;5133100;27;19911;-79
2022/01/02 10:36:11;;;;;;;;;;;16.50;84.10;;;;;;5134191;27;19964;-79
2022/01/02 10:38:36;;;;;;;;;;;16.30;86.90;;;;;;5089626;27;19984;-78
2022/01/02 10:41:02;;;;;;;;;;;16.00;87.20;;;;;;5112872;27;19922;-80
2022/01/02 10:43:32;;;;;;;;;;;15.70;90.20;;;;;;5082861;27;19915;-78
2022/01/02 10:45:58;;;;;;;;;;;15.40;91.00;;;;;;5133364;27;19911;-79
2022/01/02 10:48:40;;;;;;;;;;;15.10;92.50;;;;;;5114623;27;19915;-80
2022/01/02 10:51:06;;;;;;;;;;;14.90;93.30;;;;;;5115944;27;20406;-80
2022/01/02 10:53:34;;;;;;;;;;;14.80;94.00;;;;;;5132761;27;19950;-80
2022/01/02 10:56:00;;;;;;;;;;;14.90;94.20;;;;;;5135573;27;19919;-80
2022/01/02 10:58:26;;;;;;;;;;;15.00;93.90;;;;;;5115225;27;19919;-81
2022/01/02 11:00:52;;;;;;;;;;;15.00;93.90;;;;;;5114374;27;19919;-81
2022/01/02 11:03:22;;;;;;;;;;;14.90;93.90;;;;;;5100200;27;19919;-81
2022/01/02 11:05:52;;;;;;;;;;;14.90;94.10;;;;;;5117886;27;20260;-80
2022/01/02 11:08:19;;;;;;;;;;;14.70;94.60;;;;;;5112684;28;19918;-80
2022/01/02 11:10:46;;;;;;;;;;;14.60;95.00;;;;;;5105239;27;19912;-81
2022/01/02 11:13:12;;;;;;;;;;;14.50;95.00;;;;;;5099838;27;20386;-79
2022/01/02 11:15:37;;;;;;;;;;;14.40;95.70;;;;;;5116364;28;19911;-82
2022/01/02 11:18:05;;;;;;;;;;;14.30;96.00;;;;;;5097192;28;20330;-81
2022/01/02 11:20:32;;;;;;;;;;;14.30;96.10;;;;;;5111764;28;19924;-81
2022/01/02 11:23:16;;;;;;;;;;;14.20;96.30;;;;;;5112550;28;19911;-80
2022/01/02 11:25:42;;;;;;;;;;;14.30;96.50;;;;;;5114058;28;19908;-79
2022/01/02 11:28:26;;;;;;;;;;;14.40;96.40;;;;;;5113318;28;20330;-80
2022/01/02 11:30:53;;;;;;;;;;;14.40;96.50;;;;;;5113297;28;19923;-81
2022/01/02 11:33:27;;;;;;;;;;;14.30;96.30;;;;;;5113438;28;19912;-80
2022/01/02 11:35:53;;;;;;;;;;;14.30;96.40;;;;;;5113588;28;19961;-80
2022/01/02 11:38:21;;;;;;;;;;;14.30;96.50;;;;;;5111852;28;20175;-80
2022/01/02 11:40:56;;;;;;;;;;;14.30;96.70;;;;;;5097837;28;19965;-79
2022/01/02 11:43:48;;;;;;;;;;;14.20;96.90;;;;;;5113145;28;20382;-81
2022/01/02 11:46:21;;;;;;;;;;;14.20;97.00;;;;;;5114773;28;19943;-80
2022/01/02 11:49:05;;;;;;;;;;;14.10;96.80;;;;;;5112829;28;19921;-81
2022/01/02 11:51:49;;;;;;;;;;;14.10;97.20;;;;;;5113042;28;20340;-80
2022/01/02 11:54:27;;;;;;;;;;;14.10;97.00;;;;;;5111945;28;19926;-81
2022/01/02 11:56:53;;;;;;;;;;;14.10;97.30;;;;;;5113163;28;19912;-81
2022/01/02 11:59:37;;;;;;;;;;;14.10;97.20;;;;;;5087188;28;19973;-80
2022/01/02 12:02:07;;;;;;;;;;;14.10;97.20;;;;;;5114013;28;19912;-82
2022/01/02 12:04:51;;;;;;;;;;;14.10;97.30;;;;;;5113845;28;19912;-81
2022/01/02 12:07:35;;;;;;;;;;;14.10;97.40;;;;;;5113248;28;19911;-81
2022/01/02 12:10:16;;;;;;;;;;;14.10;97.50;;;;;;5113291;28;19919;-81
2022/01/02 12:13:02;;;;;;;;;;;14.00;97.60;;;;;;5112832;28;20344;-81
2022/01/02 12:15:31;;;;;;;;;;;13.90;97.80;;;;;;5111976;28;19911;-83
2022/01/02 12:18:12;;;;;;;;;;;14.00;97.70;;;;;;5111930;28;19972;-81
2022/01/02 12:20:50;;;;;;;;;;;13.90;97.70;;;;;;5112481;28;19927;-81
2022/01/02 12:23:31;;;;;;;;;;;13.90;97.90;;;;;;5109809;28;19915;-81
2022/01/02 12:25:59;;;;;;;;;;;13.90;97.90;;;;;;5111816;28;20007;-80
2022/01/02 12:28:26;;;;;;;;;;;13.90;98.00;;;;;;5109264;28;19916;-82
2022/01/02 12:30:54;;;;;;;;;;;14.00;97.60;;;;;;5110669;28;19923;-80
2022/01/02 12:33:23;;;;;;;;;;;14.10;97.80;;;;;;5093971;28;20390;-80
2022/01/02 12:35:49;;;;;;;;;;;14.20;97.60;;;;;;5111153;28;19966;-80
2022/01/02 12:38:15;;;;;;;;;;;14.30;97.40;;;;;;5110058;28;19911;-82
2022/01/02 12:40:40;;;;;;;;;;;14.30;97.20;;;;;;5109277;28;19923;-82
2022/01/02 12:43:06;;;;;;;;;;;14.30;97.30;;;;;;5096022;28;20438;-82
2022/01/02 12:45:32;;;;;;;;;;;14.30;97.20;;;;;;5114675;28;19908;-83
2022/01/02 12:47:57;;;;;;;;;;;14.30;97.20;;;;;;5114286;28;19982;-80
2022/01/02 12:50:24;;;;;;;;;;;14.30;97.00;;;;;;5114084;28;19912;-80
2022/01/02 12:52:50;;;;;;;;;;;14.20;96.90;;;;;;5114699;28;19915;-81
2022/01/02 12:55:16;;;;;;;;;;;14.30;96.60;;;;;;5114811;28;20283;-82
2022/01/02 12:57:44;;;;;;;;;;;14.30;96.30;;;;;;5114283;28;19908;-81
2022/01/02 13:00:09;;;;;;;;;;;14.30;96.90;;;;;;5094954;28;20390;-80
2022/01/02 13:02:35;;;;;;;;;;;14.30;97.00;;;;;;5114239;28;19916;-83
2022/01/02 13:05:03;;;;;;;;;;;14.30;97.00;;;;;;5096918;28;20348;-81
2022/01/02 13:07:30;;;;;;;;;;;14.30;97.10;;;;;;5113380;28;19915;-80
2022/01/02 13:09:58;;;;;;;;;;;14.30;97.00;;;;;;5109032;28;19919;-81
2022/01/02 13:12:26;;;;;;;;;;;14.30;96.90;;;;;;5110115;28;19934;-81
2022/01/02 13:14:53;;;;;;;;;;;14.30;96.90;;;;;;5113098;28;19998;-81
2022/01/02 13:17:22;;;;;;;;;;;14.30;97.00;;;;;;5112377;28;19912;-82
2022/01/02 13:20:02;;;;;;;;;;;14.30;97.10;;;;;;5113235;28;19923;-82
2022/01/02 13:22:29;;;;;;;;;;;14.20;97.40;;;;;;5113224;28;19916;-81
2022/01/02 13:24:56;;;;;;;;;;;14.20;97.50;;;;;;5095710;28;19922;-82
2022/01/02 13:27:25;;;;;;;;;;;14.20;97.60;;;;;;5112970;28;19934;-81
2022/01/02 13:29:55;;;;;;;;;;;14.20;97.70;;;;;;5112487;28;20270;-82
2022/01/02 13:32:21;;;;;;;;;;;14.20;97.70;;;;;;5110891;28;19919;-80
2022/01/02 13:35:00;;;;;;;;;;;14.20;97.70;;;;;;5114702;28;20021;-80
2022/01/02 13:37:33;;;;;;;;;;;14.20;97.70;;;;;;5113599;28;19954;-80
2022/01/02 13:39:59;;;;;;;;;;;14.20;97.90;;;;;;5113063;28;19915;-82
2022/01/02 13:42:35;;;;;;;;;;;14.20;98.00;;;;;;5110522;28;19922;-81
2022/01/02 13:45:07;;;;;;;;;;;14.20;97.80;;;;;;5107834;28;19917;-81
2022/01/02 13:47:34;;;;;;;;;;;14.20;97.60;;;;;;5110304;28;19909;-81
2022/01/02 13:50:00;;;;;;;;;;;14.10;97.80;;;;;;5112094;28;19976;-81
2022/01/02 13:52:25;;;;;;;;;;;14.20;97.80;;;;;;5096577;28;19912;-81
2022/01/02 13:55:05;;;;;;;;;;;14.20;97.90;;;;;;5091878;28;20360;-80
2022/01/02 13:57:31;;;;;;;;;;;14.20;97.80;;;;;;5112849;28;19912;-80
2022/01/02 13:59:56;;;;;;;;;;;14.20;97.40;;;;;;5111556;28;19916;-81
2022/01/02 14:02:37;;;;;;;;;;;14.20;97.30;;;;;;5114274;28;19915;-81
2022/01/02 14:05:02;;;;;;;;;;;14.20;97.40;;;;;;5110987;28;19916;-80
2022/01/02 14:07:29;;;;;;;;;;;14.20;97.60;;;;;;5092257;28;20006;-80
2022/01/02 14:09:55;;;;;;;;;;;14.20;97.40;;;;;;5108814;28;19909;-81
2022/01/02 14:12:25;;;;;;;;;;;14.20;97.60;;;;;;5112265;28;19923;-81
2022/01/02 14:15:00;;;;;;;;;;;14.20;97.70;;;;;;5111821;28;20278;-81
2022/01/02 14:17:31;;;;;;;;;;;14.20;97.80;;;;;;5105502;28;19912;-81
2022/01/02 14:19:57;;;;;;;;;;;14.30;97.80;;;;;;5100084;28;19926;-82
2022/01/02 14:22:23;;;;;;;;;;;14.20;97.80;;;;;;5095392;28;19916;-81
2022/01/02 14:24:49;;;;;;;;;;;14.20;97.50;;;;;;5109214;28;19947;-82
2022/01/02 14:27:19;;;;;;;;;;;14.20;97.60;;;;;;5095928;28;19951;-80
2022/01/02 14:29:45;;;;;;;;;;;14.20;97.60;;;;;;5111839;28;19924;-83